sensor_id;sensor_type;location;lat;lon;timestamp;P1;durP1;ratioP1;P2;durP2;ratioP2
15958;SDS011;8078;47.822;9.402;2023-12-20T00:01:46;10.77;;;7.63;;
15958;SDS011;8078;47.822;9.402;2023-12-20T00:04:12;9.30;;;6.93;;
15958;SDS011;8078;47.822;9.402;2023-12-20T00:06:37;10.73;;;7.13;;
15958;SDS011;8078;47.822;9.402;2023-12-20T00:09:03;9.53;;;6.63;;
15958;SDS011;8078;47.822;9.402;2023-12-20T00:11:28;13.03;;;6.80;;
15958;SDS011;8078;47.822;9.402;2023-12-20T00:13:54;9.20;;;7.40;;
15958;SDS011;8078;47.822;9.402;2023-12-20T00:16:19;8.67;;;6.27;;
15958;SDS011;8078;47.822;9.402;2023-12-20T00:18:45;8.53;;;6.80;;
15958;SDS011;8078;47.822;9.402;2023-12-20T00:21:10;8.13;;;6.53;;
15958;SDS011;8078;47.822;9.402;2023-12-20T00:23:36;9.27;;;6.60;;
15958;SDS011;8078;47.822;9.402;2023-12-20T00:26:02;8.87;;;6.30;;
15958;SDS011;8078;47.822;9.402;2023-12-20T00:28:27;9.23;;;6.87;;
15958;SDS011;8078;47.822;9.402;2023-12-20T00:30:53;9.53;;;6.60;;
15958;SDS011;8078;47.822;9.402;2023-12-20T00:33:18;11.97;;;7.43;;
15958;SDS011;8078;47.822;9.402;2023-12-20T00:35:44;8.80;;;6.93;;
15958;SDS011;8078;47.822;9.402;2023-12-20T00:38:09;11.43;;;8.17;;
15958;SDS011;8078;47.822;9.402;2023-12-20T00:40:36;9.77;;;7.13;;
15958;SDS011;8078;47.822;9.402;2023-12-20T00:43:02;9.07;;;6.27;;
15958;SDS011;8078;47.822;9.402;2023-12-20T00:45:27;9.03;;;6.73;;
15958;SDS011;8078;47.822;9.402;2023-12-20T00:47:53;7.57;;;6.03;;
15958;SDS011;8078;47.822;9.402;2023-12-20T00:50:18;8.93;;;6.77;;
15958;SDS011;8078;47.822;9.402;2023-12-20T00:52:46;9.97;;;7.33;;
15958;SDS011;8078;47.822;9.402;2023-12-20T00:55:11;7.83;;;6.50;;
15958;SDS011;8078;47.822;9.402;2023-12-20T00:57:37;11.97;;;6.67;;
15958;SDS011;8078;47.822;9.402;2023-12-20T01:00:02;10.80;;;6.97;;
15958;SDS011;8078;47.822;9.402;2023-12-20T01:02:28;11.43;;;7.47;;
15958;SDS011;8078;47.822;9.402;2023-12-20T01:04:54;10.00;;;7.57;;
15958;SDS011;8078;47.822;9.402;2023-12-20T01:07:19;11.87;;;7.33;;
15958;SDS011;8078;47.822;9.402;2023-12-20T01:09:45;11.77;;;7.23;;
15958;SDS011;8078;47.822;9.402;2023-12-20T01:12:10;9.90;;;5.97;;
15958;SDS011;8078;47.822;9.402;2023-12-20T01:14:36;11.10;;;6.27;;
15958;SDS011;8078;47.822;9.402;2023-12-20T01:17:01;10.13;;;6.83;;
15958;SDS011;8078;47.822;9.402;2023-12-20T01:19:27;9.17;;;6.60;;
15958;SDS011;8078;47.822;9.402;2023-12-20T01:21:54;11.63;;;8.53;;
15958;SDS011;8078;47.822;9.402;2023-12-20T01:24:20;10.07;;;7.03;;
15958;SDS011;8078;47.822;9.402;2023-12-20T01:26:45;10.43;;;7.47;;
15958;SDS011;8078;47.822;9.402;2023-12-20T01:29:11;11.40;;;8.03;;
15958;SDS011;8078;47.822;9.402;2023-12-20T01:31:38;12.00;;;9.03;;
15958;SDS011;8078;47.822;9.402;2023-12-20T01:34:03;10.70;;;7.17;;
15958;SDS011;8078;47.822;9.402;2023-12-20T01:36:29;8.60;;;6.27;;
15958;SDS011;8078;47.822;9.402;2023-12-20T01:38:54;9.13;;;6.97;;
15958;SDS011;8078;47.822;9.402;2023-12-20T01:41:20;10.17;;;7.00;;
15958;SDS011;8078;47.822;9.402;2023-12-20T01:43:45;9.93;;;7.10;;
15958;SDS011;8078;47.822;9.402;2023-12-20T01:46:11;10.97;;;7.40;;
15958;SDS011;8078;47.822;9.402;2023-12-20T01:48:37;8.47;;;6.93;;
15958;SDS011;8078;47.822;9.402;2023-12-20T01:51:03;9.53;;;7.07;;
15958;SDS011;8078;47.822;9.402;2023-12-20T01:53:30;10.40;;;7.17;;
15958;SDS011;8078;47.822;9.402;2023-12-20T01:55:57;8.77;;;6.80;;
15958;SDS011;8078;47.822;9.402;2023-12-20T01:58:24;9.27;;;7.40;;
15958;SDS011;8078;47.822;9.402;2023-12-20T02:00:50;9.30;;;6.90;;
15958;SDS011;8078;47.822;9.402;2023-12-20T02:03:16;10.37;;;6.97;;
15958;SDS011;8078;47.822;9.402;2023-12-20T02:05:43;8.63;;;6.77;;
15958;SDS011;8078;47.822;9.402;2023-12-20T02:08:10;10.27;;;7.00;;
15958;SDS011;8078;47.822;9.402;2023-12-20T02:10:36;8.33;;;6.00;;
15958;SDS011;8078;47.822;9.402;2023-12-20T02:13:02;9.93;;;7.97;;
15958;SDS011;8078;47.822;9.402;2023-12-20T02:15:29;9.20;;;7.20;;
15958;SDS011;8078;47.822;9.402;2023-12-20T02:17:54;8.30;;;6.40;;
15958;SDS011;8078;47.822;9.402;2023-12-20T02:20:20;9.13;;;7.43;;
15958;SDS011;8078;47.822;9.402;2023-12-20T02:22:46;9.27;;;7.17;;
15958;SDS011;8078;47.822;9.402;2023-12-20T02:25:11;8.37;;;6.87;;
15958;SDS011;8078;47.822;9.402;2023-12-20T02:27:37;10.80;;;7.50;;
15958;SDS011;8078;47.822;9.402;2023-12-20T02:30:04;8.43;;;7.53;;
15958;SDS011;8078;47.822;9.402;2023-12-20T02:32:31;9.47;;;6.90;;
15958;SDS011;8078;47.822;9.402;2023-12-20T02:34:57;9.93;;;6.90;;
15958;SDS011;8078;47.822;9.402;2023-12-20T02:37:23;8.97;;;7.03;;
15958;SDS011;8078;47.822;9.402;2023-12-20T02:39:48;8.10;;;6.30;;
15958;SDS011;8078;47.822;9.402;2023-12-20T02:42:14;9.27;;;7.20;;
15958;SDS011;8078;47.822;9.402;2023-12-20T02:44:39;8.07;;;6.87;;
15958;SDS011;8078;47.822;9.402;2023-12-20T02:47:05;10.13;;;7.03;;
15958;SDS011;8078;47.822;9.402;2023-12-20T02:49:31;10.97;;;6.10;;
15958;SDS011;8078;47.822;9.402;2023-12-20T02:51:56;8.83;;;7.03;;
15958;SDS011;8078;47.822;9.402;2023-12-20T02:54:22;9.27;;;6.57;;
15958;SDS011;8078;47.822;9.402;2023-12-20T02:56:47;8.90;;;7.80;;
15958;SDS011;8078;47.822;9.402;2023-12-20T02:59:13;9.97;;;6.50;;
15958;SDS011;8078;47.822;9.402;2023-12-20T03:01:45;9.17;;;7.37;;
15958;SDS011;8078;47.822;9.402;2023-12-20T03:04:11;10.17;;;7.13;;
15958;SDS011;8078;47.822;9.402;2023-12-20T03:06:37;9.10;;;6.93;;
15958;SDS011;8078;47.822;9.402;2023-12-20T03:09:05;9.77;;;6.77;;
15958;SDS011;8078;47.822;9.402;2023-12-20T03:11:30;7.90;;;7.10;;
15958;SDS011;8078;47.822;9.402;2023-12-20T03:13:56;9.37;;;6.90;;
15958;SDS011;8078;47.822;9.402;2023-12-20T03:16:22;12.67;;;6.37;;
15958;SDS011;8078;47.822;9.402;2023-12-20T03:18:48;10.90;;;6.77;;
15958;SDS011;8078;47.822;9.402;2023-12-20T03:21:13;10.57;;;6.83;;
15958;SDS011;8078;47.822;9.402;2023-12-20T03:23:39;9.57;;;6.83;;
15958;SDS011;8078;47.822;9.402;2023-12-20T03:26:08;10.13;;;7.87;;
15958;SDS011;8078;47.822;9.402;2023-12-20T03:28:34;11.27;;;8.40;;
15958;SDS011;8078;47.822;9.402;2023-12-20T03:31:01;9.57;;;6.70;;
15958;SDS011;8078;47.822;9.402;2023-12-20T03:33:27;10.53;;;7.57;;
15958;SDS011;8078;47.822;9.402;2023-12-20T03:35:53;10.37;;;7.73;;
15958;SDS011;8078;47.822;9.402;2023-12-20T03:38:18;12.77;;;7.70;;
15958;SDS011;8078;47.822;9.402;2023-12-20T03:40:44;13.47;;;10.63;;
15958;SDS011;8078;47.822;9.402;2023-12-20T03:43:09;15.37;;;9.97;;
15958;SDS011;8078;47.822;9.402;2023-12-20T03:45:35;15.57;;;10.33;;
15958;SDS011;8078;47.822;9.402;2023-12-20T03:48:01;15.70;;;11.00;;
15958;SDS011;8078;47.822;9.402;2023-12-20T03:50:26;16.27;;;10.27;;
15958;SDS011;8078;47.822;9.402;2023-12-20T03:52:52;18.23;;;12.30;;
15958;SDS011;8078;47.822;9.402;2023-12-20T03:55:18;19.37;;;12.03;;
15958;SDS011;8078;47.822;9.402;2023-12-20T03:57:43;23.47;;;12.73;;
15958;SDS011;8078;47.822;9.402;2023-12-20T04:00:09;20.57;;;13.47;;
15958;SDS011;8078;47.822;9.402;2023-12-20T04:02:39;28.27;;;17.93;;
15958;SDS011;8078;47.822;9.402;2023-12-20T04:05:06;26.43;;;14.63;;
15958;SDS011;8078;47.822;9.402;2023-12-20T04:07:32;27.67;;;16.80;;
15958;SDS011;8078;47.822;9.402;2023-12-20T04:09:57;31.77;;;18.43;;
15958;SDS011;8078;47.822;9.402;2023-12-20T04:12:23;36.03;;;19.47;;
15958;SDS011;8078;47.822;9.402;2023-12-20T04:14:49;52.83;;;27.23;;
15958;SDS011;8078;47.822;9.402;2023-12-20T04:17:15;62.50;;;29.37;;
15958;SDS011;8078;47.822;9.402;2023-12-20T04:19:41;932.83;;;107.77;;
15958;SDS011;8078;47.822;9.402;2023-12-20T04:22:07;1187.83;;;136.27;;
15958;SDS011;8078;47.822;9.402;2023-12-20T04:24:32;923.30;;;102.37;;
15958;SDS011;8078;47.822;9.402;2023-12-20T04:26:58;1108.73;;;127.20;;
15958;SDS011;8078;47.822;9.402;2023-12-20T04:29:23;949.53;;;107.37;;
15958;SDS011;8078;47.822;9.402;2023-12-20T04:31:49;1217.97;;;122.87;;
15958;SDS011;8078;47.822;9.402;2023-12-20T04:34:16;1601.57;;;172.00;;
15958;SDS011;8078;47.822;9.402;2023-12-20T04:36:42;1323.23;;;133.53;;
15958;SDS011;8078;47.822;9.402;2023-12-20T04:39:08;1167.00;;;121.97;;
15958;SDS011;8078;47.822;9.402;2023-12-20T04:41:33;970.87;;;92.90;;
15958;SDS011;8078;47.822;9.402;2023-12-20T04:43:59;1392.27;;;139.37;;
15958;SDS011;8078;47.822;9.402;2023-12-20T04:46:25;1470.13;;;148.97;;
15958;SDS011;8078;47.822;9.402;2023-12-20T04:48:51;872.17;;;73.97;;
15958;SDS011;8078;47.822;9.402;2023-12-20T04:51:16;1045.60;;;100.70;;
15958;SDS011;8078;47.822;9.402;2023-12-20T04:53:42;1230.47;;;116.00;;
15958;SDS011;8078;47.822;9.402;2023-12-20T04:56:08;893.57;;;91.43;;
15958;SDS011;8078;47.822;9.402;2023-12-20T04:58:33;1331.03;;;133.30;;
15958;SDS011;8078;47.822;9.402;2023-12-20T05:00:59;1021.70;;;90.90;;
15958;SDS011;8078;47.822;9.402;2023-12-20T05:03:25;970.43;;;105.70;;
15958;SDS011;8078;47.822;9.402;2023-12-20T05:05:50;866.27;;;89.30;;
15958;SDS011;8078;47.822;9.402;2023-12-20T05:08:16;885.83;;;88.07;;
15958;SDS011;8078;47.822;9.402;2023-12-20T05:10:41;1150.50;;;102.50;;
15958;SDS011;8078;47.822;9.402;2023-12-20T05:13:07;947.73;;;92.67;;
15958;SDS011;8078;47.822;9.402;2023-12-20T05:15:33;859.23;;;82.63;;
15958;SDS011;8078;47.822;9.402;2023-12-20T05:17:58;1175.63;;;103.47;;
15958;SDS011;8078;47.822;9.402;2023-12-20T05:20:24;820.90;;;77.40;;
15958;SDS011;8078;47.822;9.402;2023-12-20T05:22:49;769.70;;;60.73;;
15958;SDS011;8078;47.822;9.402;2023-12-20T05:25:15;857.67;;;79.30;;
15958;SDS011;8078;47.822;9.402;2023-12-20T05:27:40;770.73;;;73.27;;
15958;SDS011;8078;47.822;9.402;2023-12-20T05:30:06;875.27;;;81.30;;
15958;SDS011;8078;47.822;9.402;2023-12-20T05:32:32;756.60;;;69.77;;
15958;SDS011;8078;47.822;9.402;2023-12-20T05:34:57;853.70;;;76.23;;
15958;SDS011;8078;47.822;9.402;2023-12-20T05:37:23;1004.70;;;84.03;;
15958;SDS011;8078;47.822;9.402;2023-12-20T05:39:48;761.90;;;67.97;;
15958;SDS011;8078;47.822;9.402;2023-12-20T05:42:14;762.23;;;65.13;;
15958;SDS011;8078;47.822;9.402;2023-12-20T05:44:40;750.67;;;64.30;;
15958;SDS011;8078;47.822;9.402;2023-12-20T05:47:05;1055.77;;;90.80;;
15958;SDS011;8078;47.822;9.402;2023-12-20T05:49:31;1067.73;;;88.70;;
15958;SDS011;8078;47.822;9.402;2023-12-20T05:51:56;871.80;;;84.07;;
15958;SDS011;8078;47.822;9.402;2023-12-20T05:54:22;871.20;;;81.30;;
15958;SDS011;8078;47.822;9.402;2023-12-20T05:56:48;955.13;;;84.10;;
15958;SDS011;8078;47.822;9.402;2023-12-20T05:59:13;900.53;;;78.70;;
15958;SDS011;8078;47.822;9.402;2023-12-20T06:01:39;1083.83;;;89.40;;
15958;SDS011;8078;47.822;9.402;2023-12-20T06:04:04;881.33;;;64.13;;
15958;SDS011;8078;47.822;9.402;2023-12-20T06:06:30;925.97;;;78.60;;
15958;SDS011;8078;47.822;9.402;2023-12-20T06:08:56;928.10;;;71.30;;
15958;SDS011;8078;47.822;9.402;2023-12-20T06:11:21;1168.80;;;92.60;;
15958;SDS011;8078;47.822;9.402;2023-12-20T06:13:47;1156.17;;;101.70;;
15958;SDS011;8078;47.822;9.402;2023-12-20T06:16:14;1098.90;;;97.30;;
15958;SDS011;8078;47.822;9.402;2023-12-20T06:18:40;1448.27;;;143.67;;
15958;SDS011;8078;47.822;9.402;2023-12-20T06:21:05;1276.23;;;112.97;;
15958;SDS011;8078;47.822;9.402;2023-12-20T06:23:32;1193.63;;;113.67;;
15958;SDS011;8078;47.822;9.402;2023-12-20T06:25:58;1034.97;;;98.23;;
15958;SDS011;8078;47.822;9.402;2023-12-20T06:28:23;1028.07;;;94.67;;
15958;SDS011;8078;47.822;9.402;2023-12-20T06:30:49;1087.47;;;83.17;;
15958;SDS011;8078;47.822;9.402;2023-12-20T06:33:17;1252.03;;;94.80;;
15958;SDS011;8078;47.822;9.402;2023-12-20T06:35:43;961.23;;;75.50;;
15958;SDS011;8078;47.822;9.402;2023-12-20T06:38:09;1370.37;;;126.20;;
15958;SDS011;8078;47.822;9.402;2023-12-20T06:40:34;1159.43;;;109.90;;
15958;SDS011;8078;47.822;9.402;2023-12-20T06:43:00;865.87;;;73.30;;
15958;SDS011;8078;47.822;9.402;2023-12-20T06:45:25;1009.17;;;88.53;;
15958;SDS011;8078;47.822;9.402;2023-12-20T06:47:51;1036.67;;;93.47;;
15958;SDS011;8078;47.822;9.402;2023-12-20T06:50:17;1132.27;;;99.73;;
15958;SDS011;8078;47.822;9.402;2023-12-20T06:52:42;1152.70;;;99.53;;
15958;SDS011;8078;47.822;9.402;2023-12-20T06:55:08;1113.63;;;92.83;;
15958;SDS011;8078;47.822;9.402;2023-12-20T06:57:33;1205.37;;;110.00;;
15958;SDS011;8078;47.822;9.402;2023-12-20T07:00:01;1221.50;;;105.07;;
15958;SDS011;8078;47.822;9.402;2023-12-20T07:02:27;879.17;;;76.07;;
15958;SDS011;8078;47.822;9.402;2023-12-20T07:04:55;878.87;;;75.83;;
15958;SDS011;8078;47.822;9.402;2023-12-20T07:07:21;878.07;;;73.97;;
15958;SDS011;8078;47.822;9.402;2023-12-20T07:09:48;911.63;;;61.23;;
15958;SDS011;8078;47.822;9.402;2023-12-20T07:12:13;1035.30;;;82.10;;
15958;SDS011;8078;47.822;9.402;2023-12-20T07:14:39;821.30;;;66.87;;
15958;SDS011;8078;47.822;9.402;2023-12-20T07:17:05;1045.87;;;100.27;;
15958;SDS011;8078;47.822;9.402;2023-12-20T07:19:32;865.40;;;81.17;;
15958;SDS011;8078;47.822;9.402;2023-12-20T07:21:58;833.80;;;73.30;;
15958;SDS011;8078;47.822;9.402;2023-12-20T07:24:23;818.67;;;64.53;;
15958;SDS011;8078;47.822;9.402;2023-12-20T07:26:49;973.13;;;89.23;;
15958;SDS011;8078;47.822;9.402;2023-12-20T07:29:15;908.13;;;74.13;;
15958;SDS011;8078;47.822;9.402;2023-12-20T07:31:40;709.90;;;56.23;;
15958;SDS011;8078;47.822;9.402;2023-12-20T07:34:06;877.10;;;80.60;;
15958;SDS011;8078;47.822;9.402;2023-12-20T07:36:32;828.47;;;70.73;;
15958;SDS011;8078;47.822;9.402;2023-12-20T07:38:57;661.90;;;59.93;;
15958;SDS011;8078;47.822;9.402;2023-12-20T07:41:23;569.50;;;48.37;;
15958;SDS011;8078;47.822;9.402;2023-12-20T07:43:48;533.27;;;41.27;;
15958;SDS011;8078;47.822;9.402;2023-12-20T07:46:14;598.63;;;47.43;;
15958;SDS011;8078;47.822;9.402;2023-12-20T07:48:40;939.90;;;78.10;;
15958;SDS011;8078;47.822;9.402;2023-12-20T07:51:06;763.57;;;51.70;;
15958;SDS011;8078;47.822;9.402;2023-12-20T07:53:33;605.73;;;36.10;;
15958;SDS011;8078;47.822;9.402;2023-12-20T07:55:59;815.83;;;57.10;;
15958;SDS011;8078;47.822;9.402;2023-12-20T07:58:25;840.63;;;65.40;;
15958;SDS011;8078;47.822;9.402;2023-12-20T08:00:50;758.03;;;62.50;;
15958;SDS011;8078;47.822;9.402;2023-12-20T08:03:16;656.47;;;52.43;;
15958;SDS011;8078;47.822;9.402;2023-12-20T08:05:41;795.07;;;60.47;;
15958;SDS011;8078;47.822;9.402;2023-12-20T08:08:07;811.37;;;71.07;;
15958;SDS011;8078;47.822;9.402;2023-12-20T08:10:32;648.77;;;45.37;;
15958;SDS011;8078;47.822;9.402;2023-12-20T08:12:58;742.60;;;55.30;;
15958;SDS011;8078;47.822;9.402;2023-12-20T08:15:24;818.07;;;59.90;;
15958;SDS011;8078;47.822;9.402;2023-12-20T08:17:49;769.10;;;60.10;;
15958;SDS011;8078;47.822;9.402;2023-12-20T08:20:18;687.27;;;42.97;;
15958;SDS011;8078;47.822;9.402;2023-12-20T08:22:43;846.23;;;56.97;;
15958;SDS011;8078;47.822;9.402;2023-12-20T08:25:09;854.33;;;55.33;;
15958;SDS011;8078;47.822;9.402;2023-12-20T08:27:41;882.20;;;69.77;;
15958;SDS011;8078;47.822;9.402;2023-12-20T08:30:08;816.17;;;54.53;;
15958;SDS011;8078;47.822;9.402;2023-12-20T08:32:34;781.80;;;51.93;;
15958;SDS011;8078;47.822;9.402;2023-12-20T08:35:00;805.27;;;59.17;;
15958;SDS011;8078;47.822;9.402;2023-12-20T08:37:25;573.63;;;46.23;;
15958;SDS011;8078;47.822;9.402;2023-12-20T08:39:51;831.53;;;60.70;;
15958;SDS011;8078;47.822;9.402;2023-12-20T08:42:16;802.40;;;63.60;;
15958;SDS011;8078;47.822;9.402;2023-12-20T08:44:42;870.63;;;69.77;;
15958;SDS011;8078;47.822;9.402;2023-12-20T08:47:08;949.37;;;72.27;;
15958;SDS011;8078;47.822;9.402;2023-12-20T08:49:33;723.47;;;61.47;;
15958;SDS011;8078;47.822;9.402;2023-12-20T08:51:59;858.63;;;61.60;;
15958;SDS011;8078;47.822;9.402;2023-12-20T08:54:24;1003.47;;;74.33;;
15958;SDS011;8078;47.822;9.402;2023-12-20T08:56:50;966.43;;;73.87;;
15958;SDS011;8078;47.822;9.402;2023-12-20T08:59:15;975.57;;;80.57;;
15958;SDS011;8078;47.822;9.402;2023-12-20T09:01:41;1083.77;;;94.53;;
15958;SDS011;8078;47.822;9.402;2023-12-20T09:04:06;1080.40;;;88.50;;
15958;SDS011;8078;47.822;9.402;2023-12-20T09:06:32;973.47;;;67.00;;
15958;SDS011;8078;47.822;9.402;2023-12-20T09:08:58;740.20;;;55.97;;
15958;SDS011;8078;47.822;9.402;2023-12-20T09:11:23;953.83;;;80.93;;
15958;SDS011;8078;47.822;9.402;2023-12-20T09:13:49;901.40;;;65.77;;
15958;SDS011;8078;47.822;9.402;2023-12-20T09:16:14;821.00;;;58.50;;
15958;SDS011;8078;47.822;9.402;2023-12-20T09:18:40;953.27;;;73.30;;
15958;SDS011;8078;47.822;9.402;2023-12-20T09:21:06;698.90;;;52.60;;
15958;SDS011;8078;47.822;9.402;2023-12-20T09:23:32;801.57;;;64.57;;
15958;SDS011;8078;47.822;9.402;2023-12-20T09:25:57;866.40;;;65.37;;
15958;SDS011;8078;47.822;9.402;2023-12-20T09:28:23;875.07;;;70.87;;
15958;SDS011;8078;47.822;9.402;2023-12-20T09:30:49;887.17;;;54.93;;
15958;SDS011;8078;47.822;9.402;2023-12-20T09:33:14;1001.00;;;66.90;;
15958;SDS011;8078;47.822;9.402;2023-12-20T09:35:41;988.37;;;82.73;;
15958;SDS011;8078;47.822;9.402;2023-12-20T09:38:07;885.57;;;67.67;;
15958;SDS011;8078;47.822;9.402;2023-12-20T09:40:33;1028.60;;;86.93;;
15958;SDS011;8078;47.822;9.402;2023-12-20T09:45:33;1132.00;;;71.33;;
15958;SDS011;8078;47.822;9.402;2023-12-20T09:47:59;662.20;;;48.23;;
15958;SDS011;8078;47.822;9.402;2023-12-20T09:50:26;735.90;;;50.67;;
15958;SDS011;8078;47.822;9.402;2023-12-20T09:52:53;837.10;;;62.70;;
15958;SDS011;8078;47.822;9.402;2023-12-20T09:55:21;789.63;;;68.57;;
15958;SDS011;8078;47.822;9.402;2023-12-20T09:57:47;739.33;;;64.57;;
15958;SDS011;8078;47.822;9.402;2023-12-20T10:00:13;876.97;;;66.23;;
15958;SDS011;8078;47.822;9.402;2023-12-20T10:02:42;735.23;;;52.33;;
15958;SDS011;8078;47.822;9.402;2023-12-20T10:05:15;965.53;;;84.37;;
15958;SDS011;8078;47.822;9.402;2023-12-20T10:07:44;1004.43;;;69.10;;
15958;SDS011;8078;47.822;9.402;2023-12-20T10:10:10;774.63;;;60.57;;
15958;SDS011;8078;47.822;9.402;2023-12-20T10:12:37;884.53;;;68.40;;
15958;SDS011;8078;47.822;9.402;2023-12-20T10:15:03;728.50;;;50.23;;
15958;SDS011;8078;47.822;9.402;2023-12-20T10:17:29;910.53;;;65.40;;
15958;SDS011;8078;47.822;9.402;2023-12-20T10:19:55;889.97;;;60.73;;
15958;SDS011;8078;47.822;9.402;2023-12-20T10:22:21;905.13;;;68.10;;
15958;SDS011;8078;47.822;9.402;2023-12-20T10:24:46;804.33;;;59.83;;
15958;SDS011;8078;47.822;9.402;2023-12-20T10:27:12;661.77;;;48.27;;
15958;SDS011;8078;47.822;9.402;2023-12-20T10:29:38;1045.07;;;73.40;;
15958;SDS011;8078;47.822;9.402;2023-12-20T10:34:49;212.50;;;25.67;;
15958;SDS011;8078;47.822;9.402;2023-12-20T10:37:15;141.17;;;20.23;;
15958;SDS011;8078;47.822;9.402;2023-12-20T10:39:41;304.70;;;32.30;;
15958;SDS011;8078;47.822;9.402;2023-12-20T10:42:11;27.13;;;13.37;;
15958;SDS011;8078;47.822;9.402;2023-12-20T10:44:38;467.27;;;43.87;;
15958;SDS011;8078;47.822;9.402;2023-12-20T10:47:04;35.80;;;16.03;;
15958;SDS011;8078;47.822;9.402;2023-12-20T10:49:31;570.37;;;53.43;;
15958;SDS011;8078;47.822;9.402;2023-12-20T10:52:01;28.87;;;13.63;;
15958;SDS011;8078;47.822;9.402;2023-12-20T10:54:28;307.83;;;31.90;;
15958;SDS011;8078;47.822;9.402;2023-12-20T10:56:54;857.03;;;72.97;;
15958;SDS011;8078;47.822;9.402;2023-12-20T10:59:22;45.10;;;12.70;;
15958;SDS011;8078;47.822;9.402;2023-12-20T11:01:49;366.63;;;35.70;;
15958;SDS011;8078;47.822;9.402;2023-12-20T11:04:18;87.43;;;19.23;;
15958;SDS011;8078;47.822;9.402;2023-12-20T11:06:51;27.87;;;11.97;;
15958;SDS011;8078;47.822;9.402;2023-12-20T11:09:25;60.90;;;14.33;;
15958;SDS011;8078;47.822;9.402;2023-12-20T11:17:09;161.53;;;19.60;;
15958;SDS011;8078;47.822;9.402;2023-12-20T11:22:27;21.23;;;10.60;;
15958;SDS011;8078;47.822;9.402;2023-12-20T11:24:58;20.73;;;11.50;;
15958;SDS011;8078;47.822;9.402;2023-12-20T11:27:33;18.03;;;9.43;;
15958;SDS011;8078;47.822;9.402;2023-12-20T11:29:59;19.73;;;10.60;;
15958;SDS011;8078;47.822;9.402;2023-12-20T11:34:56;16.10;;;10.10;;
15958;SDS011;8078;47.822;9.402;2023-12-20T11:37:31;13.53;;;8.50;;
15958;SDS011;8078;47.822;9.402;2023-12-20T11:40:01;12.10;;;7.40;;
15958;SDS011;8078;47.822;9.402;2023-12-20T11:42:39;16.10;;;8.13;;
15958;SDS011;8078;47.822;9.402;2023-12-20T11:45:16;15.97;;;9.47;;
15958;SDS011;8078;47.822;9.402;2023-12-20T11:47:47;15.90;;;10.00;;
15958;SDS011;8078;47.822;9.402;2023-12-20T11:50:17;14.17;;;8.93;;
15958;SDS011;8078;47.822;9.402;2023-12-20T11:52:43;14.17;;;9.13;;
15958;SDS011;8078;47.822;9.402;2023-12-20T11:55:08;12.40;;;7.80;;
15958;SDS011;8078;47.822;9.402;2023-12-20T11:57:34;14.77;;;9.27;;
15958;SDS011;8078;47.822;9.402;2023-12-20T12:00:01;14.70;;;9.27;;
15958;SDS011;8078;47.822;9.402;2023-12-20T12:02:27;14.00;;;8.70;;
15958;SDS011;8078;47.822;9.402;2023-12-20T12:04:53;14.47;;;8.90;;
15958;SDS011;8078;47.822;9.402;2023-12-20T12:07:18;14.70;;;8.63;;
15958;SDS011;8078;47.822;9.402;2023-12-20T12:09:45;13.67;;;8.43;;
15958;SDS011;8078;47.822;9.402;2023-12-20T12:12:11;13.30;;;8.40;;
15958;SDS011;8078;47.822;9.402;2023-12-20T12:14:38;12.27;;;7.43;;
15958;SDS011;8078;47.822;9.402;2023-12-20T12:17:05;8.93;;;6.10;;
15958;SDS011;8078;47.822;9.402;2023-12-20T12:19:38;11.70;;;7.00;;
15958;SDS011;8078;47.822;9.402;2023-12-20T12:22:05;9.87;;;6.77;;
15958;SDS011;8078;47.822;9.402;2023-12-20T12:24:36;10.70;;;7.20;;
15958;SDS011;8078;47.822;9.402;2023-12-20T12:27:02;10.30;;;6.83;;
15958;SDS011;8078;47.822;9.402;2023-12-20T12:29:28;8.53;;;6.60;;
15958;SDS011;8078;47.822;9.402;2023-12-20T12:31:54;10.33;;;7.30;;
15958;SDS011;8078;47.822;9.402;2023-12-20T12:34:20;9.13;;;6.73;;
15958;SDS011;8078;47.822;9.402;2023-12-20T12:36:45;8.33;;;7.40;;
15958;SDS011;8078;47.822;9.402;2023-12-20T12:39:14;8.90;;;6.50;;
15958;SDS011;8078;47.822;9.402;2023-12-20T12:41:42;7.53;;;6.27;;
15958;SDS011;8078;47.822;9.402;2023-12-20T12:44:08;7.70;;;5.93;;
15958;SDS011;8078;47.822;9.402;2023-12-20T12:46:33;8.73;;;6.03;;
15958;SDS011;8078;47.822;9.402;2023-12-20T12:48:59;5.80;;;3.87;;
15958;SDS011;8078;47.822;9.402;2023-12-20T12:51:25;5.67;;;3.30;;
15958;SDS011;8078;47.822;9.402;2023-12-20T12:53:50;3.30;;;3.00;;
15958;SDS011;8078;47.822;9.402;2023-12-20T12:56:16;3.57;;;2.70;;
15958;SDS011;8078;47.822;9.402;2023-12-20T12:58:42;2.63;;;2.43;;
15958;SDS011;8078;47.822;9.402;2023-12-20T13:01:08;2.90;;;2.60;;
15958;SDS011;8078;47.822;9.402;2023-12-20T13:03:34;2.20;;;2.00;;
15958;SDS011;8078;47.822;9.402;2023-12-20T13:06:00;2.83;;;2.63;;
15958;SDS011;8078;47.822;9.402;2023-12-20T13:08:26;2.37;;;2.17;;
15958;SDS011;8078;47.822;9.402;2023-12-20T13:10:52;2.10;;;2.00;;
15958;SDS011;8078;47.822;9.402;2023-12-20T13:13:17;2.20;;;2.00;;
15958;SDS011;8078;47.822;9.402;2023-12-20T13:15:43;2.93;;;2.37;;
15958;SDS011;8078;47.822;9.402;2023-12-20T13:18:16;2.60;;;2.40;;
15958;SDS011;8078;47.822;9.402;2023-12-20T13:20:43;2.57;;;2.20;;
15958;SDS011;8078;47.822;9.402;2023-12-20T13:23:09;2.53;;;2.33;;
15958;SDS011;8078;47.822;9.402;2023-12-20T13:25:34;2.30;;;2.10;;
15958;SDS011;8078;47.822;9.402;2023-12-20T13:28:00;3.40;;;2.13;;
15958;SDS011;8078;47.822;9.402;2023-12-20T13:30:26;2.30;;;2.10;;
15958;SDS011;8078;47.822;9.402;2023-12-20T13:32:51;2.53;;;2.30;;
15958;SDS011;8078;47.822;9.402;2023-12-20T13:35:17;2.13;;;2.00;;
15958;SDS011;8078;47.822;9.402;2023-12-20T13:37:42;2.67;;;2.43;;
15958;SDS011;8078;47.822;9.402;2023-12-20T13:40:09;2.20;;;2.10;;
15958;SDS011;8078;47.822;9.402;2023-12-20T13:42:35;2.60;;;2.40;;
15958;SDS011;8078;47.822;9.402;2023-12-20T13:45:01;2.30;;;2.10;;
15958;SDS011;8078;47.822;9.402;2023-12-20T13:47:26;2.53;;;2.33;;
15958;SDS011;8078;47.822;9.402;2023-12-20T13:49:54;2.20;;;2.00;;
15958;SDS011;8078;47.822;9.402;2023-12-20T13:52:21;2.60;;;2.37;;
15958;SDS011;8078;47.822;9.402;2023-12-20T13:54:46;2.73;;;2.53;;
15958;SDS011;8078;47.822;9.402;2023-12-20T13:57:12;2.37;;;2.17;;
15958;SDS011;8078;47.822;9.402;2023-12-20T13:59:38;3.87;;;2.77;;
15958;SDS011;8078;47.822;9.402;2023-12-20T14:02:03;3.10;;;2.60;;
15958;SDS011;8078;47.822;9.402;2023-12-20T14:04:29;2.63;;;2.20;;
15958;SDS011;8078;47.822;9.402;2023-12-20T14:06:56;2.53;;;2.33;;
15958;SDS011;8078;47.822;9.402;2023-12-20T14:09:22;3.20;;;2.37;;
15958;SDS011;8078;47.822;9.402;2023-12-20T14:11:47;2.40;;;2.20;;
15958;SDS011;8078;47.822;9.402;2023-12-20T14:14:13;2.80;;;2.20;;
15958;SDS011;8078;47.822;9.402;2023-12-20T14:16:38;4.00;;;2.40;;
15958;SDS011;8078;47.822;9.402;2023-12-20T14:19:04;2.37;;;2.13;;
15958;SDS011;8078;47.822;9.402;2023-12-20T14:21:32;3.37;;;2.17;;
15958;SDS011;8078;47.822;9.402;2023-12-20T14:23:58;2.40;;;2.20;;
15958;SDS011;8078;47.822;9.402;2023-12-20T14:26:24;2.70;;;2.50;;
15958;SDS011;8078;47.822;9.402;2023-12-20T14:28:49;2.30;;;2.10;;
15958;SDS011;8078;47.822;9.402;2023-12-20T14:31:15;1.97;;;1.77;;
15958;SDS011;8078;47.822;9.402;2023-12-20T14:33:40;2.33;;;1.90;;
15958;SDS011;8078;47.822;9.402;2023-12-20T14:36:07;3.13;;;2.30;;
15958;SDS011;8078;47.822;9.402;2023-12-20T14:38:33;2.80;;;2.17;;
15958;SDS011;8078;47.822;9.402;2023-12-20T14:40:59;2.17;;;1.97;;
15958;SDS011;8078;47.822;9.402;2023-12-20T14:43:25;3.70;;;1.70;;
15958;SDS011;8078;47.822;9.402;2023-12-20T14:45:54;3.10;;;2.13;;